createdAt,value
2023-05-02T00:01:46.788Z,43.40
2023-05-02T00:04:14.093Z,51.30
2023-05-02T00:06:42.696Z,54.83
2023-05-02T00:09:10.295Z,53.97
2023-05-02T00:11:38.749Z,54.92
2023-05-02T00:14:06.061Z,52.83
2023-05-02T00:16:33.400Z,49.83
2023-05-02T00:19:00.654Z,50.03
2023-05-02T00:21:30.201Z,54.70
2023-05-02T00:23:57.372Z,52.65
2023-05-02T00:26:24.789Z,51.72
2023-05-02T00:28:51.948Z,53.92
2023-05-02T00:31:19.201Z,52.08
2023-05-02T00:33:46.437Z,55.30
2023-05-02T00:39:09.618Z,56.22
2023-05-02T00:41:39.873Z,49.88
2023-05-02T00:44:07.280Z,54.30
2023-05-02T00:46:34.517Z,55.20
2023-05-02T00:49:02.214Z,61.30
2023-05-02T00:51:29.505Z,55.47
2023-05-02T00:54:02.743Z,56.67
2023-05-02T00:56:29.936Z,59.80
2023-05-02T00:58:59.354Z,55.10
2023-05-02T01:01:41.401Z,56.03
2023-05-02T01:04:24.153Z,56.80
2023-05-02T01:06:52.226Z,52.85
2023-05-02T01:09:37.615Z,58.67
2023-05-02T01:12:22.846Z,51.28
2023-05-02T01:14:52.415Z,63.10
2023-05-02T01:17:21.380Z,54.30
2023-05-02T01:19:54.106Z,62.53
2023-05-02T01:22:21.807Z,60.90
2023-05-02T01:24:52.897Z,56.40
2023-05-02T01:27:23.033Z,55.05
2023-05-02T01:29:53.693Z,59.30
2023-05-02T01:32:23.223Z,59.58
2023-05-02T01:34:50.657Z,60.47
2023-05-02T01:37:18.824Z,56.80
2023-05-02T01:39:49.487Z,62.63
2023-05-02T01:42:17.465Z,61.60
2023-05-02T01:44:47.921Z,57.45
2023-05-02T01:47:16.014Z,59.13
2023-05-02T01:49:44.235Z,66.30
2023-05-02T01:52:12.706Z,64.13
2023-05-02T01:54:41.385Z,59.95
2023-05-02T01:57:12.377Z,62.22
2023-05-02T01:59:41.652Z,58.75
2023-05-02T02:02:09.797Z,63.72
2023-05-02T02:04:40.623Z,61.88
2023-05-02T02:07:09.133Z,60.47
2023-05-02T02:09:36.544Z,67.13
2023-05-02T02:12:04.273Z,63.45
2023-05-02T02:14:35.045Z,70.57
2023-05-02T02:17:03.415Z,72.30
2023-05-02T02:19:34.086Z,72.40
2023-05-02T02:24:31.727Z,78.15
2023-05-02T02:27:02.161Z,79.35
2023-05-02T02:29:29.602Z,85.18
2023-05-02T02:31:56.806Z,81.82
2023-05-02T02:34:24.010Z,75.70
2023-05-02T02:37:19.721Z,79.80
2023-05-02T02:39:50.078Z,87.53
2023-05-02T02:42:26.337Z,86.90
2023-05-02T02:44:59.217Z,89.07
2023-05-02T02:47:58.772Z,86.20
2023-05-02T02:50:31.094Z,84.70
2023-05-02T02:53:03.354Z,86.85
2023-05-02T02:55:46.825Z,82.40
2023-05-02T02:58:14.027Z,82.90
2023-05-02T03:00:41.573Z,83.10
2023-05-02T03:03:08.949Z,81.55
2023-05-02T03:05:36.483Z,79.53
2023-05-02T03:08:06.789Z,80.57
2023-05-02T03:10:39.239Z,81.68
2023-05-02T03:13:06.478Z,79.38
2023-05-02T03:15:59.968Z,77.68
2023-05-02T03:18:30.119Z,73.63
2023-05-02T03:20:57.265Z,80.35
2023-05-02T03:23:26.210Z,67.00
2023-05-02T03:25:53.576Z,76.32
2023-05-02T03:28:25.281Z,75.88
2023-05-02T03:30:55.323Z,72.03
2023-05-02T03:33:22.484Z,76.72
2023-05-02T03:35:49.816Z,76.88
2023-05-02T03:38:18.369Z,81.88
2023-05-02T03:40:49.688Z,71.28
2023-05-02T03:43:16.834Z,74.05
2023-05-02T03:45:48.725Z,70.90
2023-05-02T03:48:16.086Z,76.15
2023-05-02T03:50:43.750Z,77.13
2023-05-02T03:53:10.933Z,76.90
2023-05-02T03:55:43.898Z,75.18
2023-05-02T03:58:11.564Z,75.63
2023-05-02T04:00:38.806Z,68.25
2023-05-02T04:03:06.132Z,62.90
2023-05-02T04:05:33.490Z,72.53
2023-05-02T04:08:03.120Z,71.55
2023-05-02T04:10:30.647Z,72.80
2023-05-02T04:12:57.916Z,74.70
2023-05-02T04:15:25.066Z,69.05
2023-05-02T04:17:52.362Z,89.05
2023-05-02T04:20:25.723Z,80.60
2023-05-02T04:22:53.208Z,73.53
2023-05-02T04:25:20.450Z,84.68
2023-05-02T04:27:47.815Z,80.10
2023-05-02T04:30:15.034Z,97.80
2023-05-02T04:32:42.717Z,92.28
2023-05-02T04:35:15.821Z,90.53
2023-05-02T04:37:43.053Z,85.57
2023-05-02T04:40:10.588Z,81.13
2023-05-02T04:42:39.997Z,75.53
2023-05-02T04:45:07.569Z,78.57
2023-05-02T04:47:37.991Z,70.60
2023-05-02T04:50:05.413Z,71.50
2023-05-02T04:52:32.678Z,69.00
2023-05-02T04:55:00.363Z,65.45
2023-05-02T04:57:27.619Z,73.28
2023-05-02T04:59:54.935Z,66.95
2023-05-02T05:02:25.976Z,66.18
2023-05-02T05:04:56.596Z,69.30
2023-05-02T05:09:55.819Z,64.45
2023-05-02T05:12:25.309Z,70.82
2023-05-02T05:14:53.162Z,72.57
2023-05-02T05:17:22.784Z,79.82
2023-05-02T05:19:52.169Z,71.97
2023-05-02T05:22:19.995Z,73.70
2023-05-02T05:24:56.013Z,75.38
2023-05-02T05:27:23.281Z,80.95
2023-05-02T05:29:50.604Z,81.35
2023-05-02T05:32:18.388Z,87.63
2023-05-02T05:34:45.535Z,89.63
2023-05-02T05:37:12.710Z,88.90
2023-05-02T05:39:40.594Z,91.60
2023-05-02T05:42:09.779Z,95.35
2023-05-02T05:44:42.086Z,105.30
2023-05-02T05:47:09.497Z,94.60
2023-05-02T05:49:38.485Z,97.00
2023-05-02T05:52:06.136Z,105.82
2023-05-02T05:54:33.259Z,102.25
2023-05-02T05:57:03.621Z,102.28
2023-05-02T05:59:30.782Z,99.07
2023-05-02T06:01:59.465Z,93.68
2023-05-02T06:04:29.576Z,92.65
2023-05-02T06:06:59.572Z,91.25
2023-05-02T06:09:29.095Z,94.18
2023-05-02T06:11:56.639Z,83.18
2023-05-02T06:14:24.377Z,77.32
2023-05-02T06:17:00.738Z,86.45
2023-05-02T06:19:27.988Z,82.50
2023-05-02T06:21:55.403Z,70.50
2023-05-02T06:24:25.476Z,82.05
2023-05-02T06:26:54.992Z,66.10
2023-05-02T06:29:22.157Z,64.53
2023-05-02T06:31:59.220Z,69.38
2023-05-02T06:34:26.701Z,68.22
2023-05-02T06:37:00.237Z,62.47
2023-05-02T06:39:28.994Z,59.88
2023-05-02T06:42:03.472Z,52.25
2023-05-02T06:44:32.985Z,55.13
2023-05-02T06:47:02.821Z,56.88
2023-05-02T06:49:33.175Z,51.20
2023-05-02T06:52:02.619Z,50.47
2023-05-02T06:54:31.405Z,49.20
2023-05-02T06:56:58.651Z,56.35
2023-05-02T06:59:32.238Z,54.28
2023-05-02T07:01:59.425Z,52.90
2023-05-02T07:04:27.313Z,50.13
2023-05-02T07:06:54.690Z,49.03
2023-05-02T07:09:28.797Z,49.60
2023-05-02T07:12:00.588Z,45.22
2023-05-02T07:14:27.764Z,46.83
2023-05-02T07:16:55.113Z,46.70
2023-05-02T07:19:27.028Z,41.72
2023-05-02T07:21:54.195Z,50.17
2023-05-02T07:24:21.381Z,44.92
2023-05-02T07:26:48.604Z,42.20
2023-05-02T07:29:16.013Z,44.70
2023-05-02T07:31:47.666Z,44.22
2023-05-02T07:34:20.927Z,45.88
2023-05-02T07:36:48.672Z,48.95
2023-05-02T07:39:25.004Z,50.92
2023-05-02T07:41:56.169Z,54.75
2023-05-02T07:44:26.710Z,57.45
2023-05-02T07:46:54.158Z,64.13
2023-05-02T07:49:24.715Z,56.72
2023-05-02T07:51:54.293Z,57.63
2023-05-02T07:54:27.739Z,59.17
2023-05-02T07:56:57.577Z,56.22
2023-05-02T07:59:26.058Z,60.70
2023-05-02T08:02:03.502Z,48.28
2023-05-02T08:04:36.949Z,43.83
2023-05-02T08:07:08.985Z,40.72
2023-05-02T08:09:42.535Z,42.03
2023-05-02T08:12:12.699Z,43.00
2023-05-02T08:14:42.404Z,34.40
2023-05-02T08:17:13.127Z,32.83
2023-05-02T08:19:47.665Z,36.80
2023-05-02T08:22:16.184Z,39.78
2023-05-02T08:24:43.432Z,35.90
2023-05-02T08:27:12.960Z,36.90
2023-05-02T08:29:40.175Z,37.75
2023-05-02T08:32:08.774Z,42.15
2023-05-02T08:34:38.421Z,30.67
2023-05-02T08:37:12.014Z,32.80
2023-05-02T08:39:39.954Z,36.55
2023-05-02T08:42:11.260Z,29.38
2023-05-02T08:44:40.616Z,28.35
2023-05-02T08:47:13.130Z,29.55
2023-05-02T08:49:46.439Z,29.10
2023-05-02T08:52:13.738Z,30.83
2023-05-02T08:54:44.165Z,37.05
2023-05-02T08:57:12.018Z,38.03
2023-05-02T08:59:39.568Z,42.67
2023-05-02T09:02:14.422Z,42.28
2023-05-02T09:04:43.320Z,39.65
2023-05-02T09:07:12.790Z,47.40
2023-05-02T09:09:43.115Z,41.45
2023-05-02T09:12:13.469Z,44.90
2023-05-02T09:14:49.149Z,47.35
2023-05-02T09:17:17.992Z,46.13
2023-05-02T09:19:45.536Z,39.22
2023-05-02T09:22:12.702Z,41.53
2023-05-02T09:24:40.332Z,41.85
2023-05-02T09:27:07.509Z,37.92
2023-05-02T09:29:38.846Z,41.60
2023-05-02T09:32:08.857Z,35.45
2023-05-02T09:34:37.384Z,43.60
2023-05-02T09:37:07.533Z,35.40
2023-05-02T09:39:37.793Z,35.63
2023-05-02T09:42:05.224Z,35.78
2023-05-02T09:44:42.640Z,36.38
2023-05-02T09:47:09.965Z,40.15
2023-05-02T09:49:41.398Z,30.30
2023-05-02T09:52:14.772Z,31.10
2023-05-02T09:54:42.239Z,29.10
2023-05-02T09:57:11.026Z,29.20
2023-05-02T09:59:39.777Z,30.45
2023-05-02T10:02:11.295Z,18.45
2023-05-02T10:04:42.252Z,15.88
2023-05-02T10:07:10.737Z,16.23
2023-05-02T10:09:41.617Z,16.73
2023-05-02T10:12:11.479Z,16.52
2023-05-02T10:14:42.123Z,15.13
2023-05-02T10:17:13.392Z,21.27
2023-05-02T10:19:55.959Z,12.65
2023-05-02T10:22:23.740Z,18.98
2023-05-02T10:24:51.114Z,22.20
2023-05-02T10:27:18.525Z,17.70
2023-05-02T10:29:46.923Z,19.45
2023-05-02T10:32:15.244Z,25.48
2023-05-02T10:34:44.395Z,23.25
2023-05-02T10:37:14.731Z,22.60
2023-05-02T10:39:44.660Z,24.65
2023-05-02T10:42:15.045Z,25.75
2023-05-02T10:44:44.978Z,29.08
2023-05-02T10:47:21.784Z,31.20
2023-05-02T10:50:01.201Z,21.50
2023-05-02T10:52:35.238Z,30.60
2023-05-02T10:55:20.863Z,26.55
2023-05-02T10:58:09.805Z,23.35
2023-05-02T11:00:37.274Z,26.10
2023-05-02T11:03:07.606Z,25.92
2023-05-02T11:05:54.805Z,25.15
2023-05-02T11:08:24.240Z,22.95
2023-05-02T11:10:58.757Z,26.65
2023-05-02T11:13:44.925Z,21.55
2023-05-02T11:16:14.290Z,29.35
2023-05-02T11:19:00.942Z,25.17
2023-05-02T11:21:29.130Z,18.73
2023-05-02T11:24:15.712Z,18.95
2023-05-02T11:26:49.066Z,21.58
2023-05-02T11:29:36.223Z,24.73
2023-05-02T11:32:03.493Z,21.00
2023-05-02T11:34:43.231Z,17.60
2023-05-02T11:37:17.543Z,27.35
2023-05-02T11:39:51.990Z,18.63
2023-05-02T11:42:30.992Z,21.85
2023-05-02T11:45:02.276Z,22.10
2023-05-02T11:47:29.982Z,18.88
2023-05-02T11:50:00.838Z,22.02
2023-05-02T11:52:30.667Z,18.50
2023-05-02T11:55:02.840Z,20.08
2023-05-02T11:57:36.241Z,18.83
2023-05-02T12:00:05.142Z,24.75
2023-05-02T12:03:03.129Z,22.92
2023-05-02T12:05:33.191Z,19.05
2023-05-02T12:08:08.313Z,18.60
2023-05-02T12:10:39.193Z,16.50
2023-05-02T12:13:10.174Z,21.80
2023-05-02T12:15:44.093Z,17.08
2023-05-02T12:18:15.189Z,20.02
2023-05-02T12:20:43.220Z,12.80
2023-05-02T12:23:10.684Z,14.30
2023-05-02T12:25:44.676Z,16.70
2023-05-02T12:28:23.454Z,16.02
2023-05-02T12:30:51.429Z,14.10
2023-05-02T12:33:21.709Z,16.30
2023-05-02T12:35:49.774Z,16.55
2023-05-02T12:38:18.320Z,18.00
2023-05-02T12:40:53.360Z,17.52
2023-05-02T12:43:26.758Z,21.05
2023-05-02T12:46:10.307Z,17.25
2023-05-02T12:48:40.826Z,22.05
2023-05-02T12:53:41.634Z,18.63
2023-05-02T12:56:10.702Z,21.60
2023-05-02T12:58:42.739Z,24.58
2023-05-02T13:01:13.124Z,15.77
2023-05-02T13:06:12.572Z,17.83
2023-05-02T13:08:40.226Z,20.88
2023-05-02T13:11:07.540Z,19.85
2023-05-02T13:13:37.880Z,17.50
2023-05-02T13:18:37.852Z,12.68
2023-05-02T13:21:05.305Z,18.45
2023-05-02T13:23:39.852Z,8.77
2023-05-02T13:26:07.037Z,12.55
2023-05-02T13:28:35.716Z,10.18
2023-05-02T13:31:02.819Z,9.77
2023-05-02T13:33:29.902Z,12.68
2023-05-02T13:35:56.951Z,12.27
2023-05-02T13:38:24.014Z,12.15
2023-05-02T13:40:51.417Z,9.40
2023-05-02T13:43:20.077Z,12.70
2023-05-02T13:45:48.761Z,18.08
2023-05-02T13:48:16.200Z,15.63
2023-05-02T13:50:43.494Z,10.20
2023-05-02T13:53:11.225Z,9.52
2023-05-02T13:55:38.393Z,12.50
2023-05-02T13:58:05.816Z,15.75
2023-05-02T14:00:32.984Z,17.15
2023-05-02T14:03:00.114Z,11.55
2023-05-02T14:05:27.441Z,15.27
2023-05-02T14:07:54.507Z,14.50
2023-05-02T14:10:21.699Z,11.60
2023-05-02T14:12:49.245Z,14.23
2023-05-02T14:15:16.410Z,15.80
2023-05-02T14:17:43.535Z,8.95
2023-05-02T14:20:11.124Z,19.17
2023-05-02T14:22:38.206Z,12.93
2023-05-02T14:25:05.957Z,13.98
2023-05-02T14:27:33.060Z,11.60
2023-05-02T14:30:00.745Z,14.65
2023-05-02T14:32:28.205Z,15.60
2023-05-02T14:34:55.348Z,14.35
2023-05-02T14:37:22.417Z,14.32
2023-05-02T14:39:54.969Z,15.05
2023-05-02T14:42:28.294Z,14.52
2023-05-02T14:44:57.411Z,15.02
2023-05-02T14:47:27.204Z,10.75
2023-05-02T14:49:54.300Z,12.80
2023-05-02T14:52:21.394Z,12.40
2023-05-02T14:54:48.493Z,16.45
2023-05-02T14:57:15.753Z,10.82
2023-05-02T14:59:42.938Z,12.02
2023-05-02T15:02:10.100Z,14.05
2023-05-02T15:04:37.444Z,10.50
2023-05-02T15:07:05.840Z,8.50
2023-05-02T15:09:33.039Z,10.35
2023-05-02T15:12:00.178Z,9.93
2023-05-02T15:14:27.435Z,14.13
2023-05-02T15:16:54.786Z,14.07
2023-05-02T15:19:31.066Z,10.88
2023-05-02T15:21:58.254Z,8.57
2023-05-02T15:24:25.500Z,7.78
2023-05-02T15:26:52.794Z,8.88
2023-05-02T15:29:19.848Z,10.50
2023-05-02T15:31:47.128Z,13.02
2023-05-02T15:34:14.959Z,12.02
2023-05-02T15:36:43.092Z,8.77
2023-05-02T15:39:10.372Z,12.98
2023-05-02T15:41:37.401Z,12.73
2023-05-02T15:44:04.633Z,10.00
2023-05-02T15:46:37.922Z,13.52
2023-05-02T15:49:12.788Z,14.25
2023-05-02T15:51:43.863Z,10.38
2023-05-02T15:54:11.084Z,11.15
2023-05-02T15:56:41.016Z,12.25
2023-05-02T15:59:08.391Z,9.68
2023-05-02T16:01:35.654Z,11.07
2023-05-02T16:04:09.898Z,9.45
2023-05-02T16:06:38.778Z,9.80
2023-05-02T16:09:06.593Z,6.32
2023-05-02T16:11:34.242Z,10.80
2023-05-02T16:14:05.658Z,11.02
2023-05-02T16:16:35.062Z,9.48
2023-05-02T16:19:04.693Z,12.90
2023-05-02T16:21:32.023Z,8.68
2023-05-02T16:24:00.141Z,7.70
2023-05-02T16:26:31.215Z,13.07
2023-05-02T16:28:58.227Z,7.03
2023-05-02T16:31:31.755Z,10.48
2023-05-02T16:33:59.199Z,13.15
2023-05-02T16:36:26.416Z,6.78
2023-05-02T16:38:53.688Z,8.07
2023-05-02T16:41:23.386Z,8.35
2023-05-02T16:43:53.761Z,8.43
2023-05-02T16:46:26.874Z,11.20
2023-05-02T16:48:54.405Z,7.80
2023-05-02T16:51:21.815Z,11.68
2023-05-02T16:53:52.024Z,8.32
2023-05-02T16:56:19.252Z,13.05
2023-05-02T16:58:50.621Z,8.20
2023-05-02T17:01:17.823Z,8.15
2023-05-02T17:03:45.183Z,8.35
2023-05-02T17:06:12.407Z,8.07
2023-05-02T17:08:39.651Z,7.32
2023-05-02T17:11:09.335Z,6.95
2023-05-02T17:13:36.759Z,8.48
2023-05-02T17:16:04.492Z,11.23
2023-05-02T17:18:31.799Z,8.35
2023-05-02T17:20:59.040Z,9.45
2023-05-02T17:23:28.534Z,7.93
2023-05-02T17:25:55.762Z,5.75
2023-05-02T17:28:22.763Z,10.90
2023-05-02T17:30:54.533Z,7.93
2023-05-02T17:33:23.915Z,11.45
2023-05-02T17:35:51.122Z,7.80
2023-05-02T17:38:18.284Z,7.40
2023-05-02T17:40:45.579Z,6.60
2023-05-02T17:43:12.690Z,9.55
2023-05-02T17:45:41.489Z,7.90
2023-05-02T17:48:08.795Z,6.88
2023-05-02T17:50:39.823Z,8.98
2023-05-02T17:53:07.457Z,10.50
2023-05-02T17:55:37.986Z,13.05
2023-05-02T17:58:12.570Z,8.57
2023-05-02T18:00:40.372Z,8.05
2023-05-02T18:03:08.262Z,9.05
2023-05-02T18:05:44.151Z,8.93
2023-05-02T18:08:11.753Z,11.43
2023-05-02T18:10:39.500Z,9.60
2023-05-02T18:13:07.256Z,15.38
2023-05-02T18:15:34.486Z,11.88
2023-05-02T18:18:05.505Z,11.35
2023-05-02T18:20:32.799Z,13.75
2023-05-02T18:23:01.487Z,13.88
2023-05-02T18:25:28.747Z,9.38
2023-05-02T18:28:01.096Z,9.63
2023-05-02T18:30:28.410Z,13.07
2023-05-02T18:32:55.702Z,8.70
2023-05-02T18:35:23.831Z,10.65
2023-05-02T18:37:51.041Z,7.22
2023-05-02T18:40:18.315Z,10.23
2023-05-02T18:42:46.606Z,15.45
2023-05-02T18:45:13.823Z,13.63
2023-05-02T18:47:41.179Z,9.32
2023-05-02T18:50:08.744Z,11.20
2023-05-02T18:52:36.468Z,10.38
2023-05-02T18:55:05.081Z,10.45
2023-05-02T18:57:33.785Z,12.63
2023-05-02T19:00:01.279Z,12.82
2023-05-02T19:02:31.084Z,10.13
2023-05-02T19:04:58.552Z,12.93
2023-05-02T19:07:29.164Z,12.85
2023-05-02T19:09:58.639Z,13.85
2023-05-02T19:12:25.785Z,10.57
2023-05-02T19:14:55.992Z,10.32
2023-05-02T19:17:26.795Z,8.68
2023-05-02T19:19:58.127Z,16.45
2023-05-02T19:22:27.628Z,11.18
2023-05-02T19:24:55.230Z,15.15
2023-05-02T19:27:22.489Z,14.38
2023-05-02T19:29:53.258Z,11.50
2023-05-02T19:32:23.838Z,12.38
2023-05-02T19:37:18.234Z,16.10
2023-05-02T19:39:48.488Z,16.02
2023-05-02T19:42:15.671Z,15.90
2023-05-02T19:44:45.608Z,17.83
2023-05-02T19:47:15.906Z,12.65
2023-05-02T19:49:46.606Z,15.45
2023-05-02T19:52:13.791Z,13.35
2023-05-02T19:54:41.171Z,15.55
2023-05-02T19:57:08.555Z,12.00
2023-05-02T19:59:38.983Z,18.02
2023-05-02T20:02:06.469Z,10.88
2023-05-02T20:04:33.679Z,13.63
2023-05-02T20:07:00.816Z,17.10
2023-05-02T20:09:29.707Z,13.05
2023-05-02T20:11:56.957Z,11.48
2023-05-02T20:14:27.814Z,12.75
2023-05-02T20:17:02.192Z,14.88
2023-05-02T20:19:32.201Z,10.82
2023-05-02T20:21:59.512Z,10.15
2023-05-02T20:24:27.061Z,10.90
2023-05-02T20:26:54.310Z,17.20
2023-05-02T20:29:21.304Z,12.57
2023-05-02T20:31:48.399Z,18.23
2023-05-02T20:34:15.617Z,16.70
2023-05-02T20:36:42.665Z,18.38
2023-05-02T20:39:10.282Z,13.82
2023-05-02T20:41:39.189Z,17.83
2023-05-02T20:44:06.394Z,14.35
2023-05-02T20:46:33.715Z,14.15
2023-05-02T20:49:00.887Z,12.25
2023-05-02T20:51:29.559Z,15.50
2023-05-02T20:53:56.722Z,18.83
2023-05-02T20:56:23.750Z,10.05
2023-05-02T21:01:33.472Z,16.27
2023-05-02T21:04:00.858Z,15.98
2023-05-02T21:06:29.578Z,16.15
2023-05-02T21:08:58.328Z,16.02
2023-05-02T21:11:26.671Z,13.20
2023-05-02T21:13:53.834Z,16.98
2023-05-02T21:16:22.251Z,20.48
2023-05-02T21:18:49.538Z,11.90
2023-05-02T21:21:19.248Z,13.48
2023-05-02T21:23:49.243Z,21.70
2023-05-02T21:26:16.573Z,10.45
2023-05-02T21:28:43.854Z,14.52
2023-05-02T21:31:11.284Z,17.52
2023-05-02T21:33:38.828Z,19.27
2023-05-02T21:36:08.328Z,21.67
2023-05-02T21:38:35.557Z,13.85
2023-05-02T21:41:03.448Z,16.35
2023-05-02T21:43:31.866Z,14.75
2023-05-02T21:45:59.163Z,18.02
2023-05-02T21:48:29.542Z,13.77
2023-05-02T21:50:56.696Z,13.15
2023-05-02T21:53:23.839Z,17.33
2023-05-02T21:55:51.088Z,15.52
2023-05-02T21:58:18.252Z,21.27
2023-05-02T22:00:45.397Z,23.70
2023-05-02T22:03:12.735Z,13.85
2023-05-02T22:05:41.273Z,15.27
2023-05-02T22:08:09.812Z,15.25
2023-05-02T22:10:38.692Z,12.35
2023-05-02T22:13:07.255Z,16.67
2023-05-02T22:15:34.554Z,16.83
2023-05-02T22:18:06.803Z,17.30
2023-05-02T22:20:36.831Z,14.23
2023-05-02T22:23:04.186Z,16.35
2023-05-02T22:25:31.521Z,17.92
2023-05-02T22:28:04.903Z,22.13
2023-05-02T22:30:35.021Z,18.45
2023-05-02T22:33:03.173Z,20.15
2023-05-02T22:35:30.450Z,19.67
2023-05-02T22:38:01.166Z,13.88
2023-05-02T22:40:29.695Z,15.65
2023-05-02T22:42:56.921Z,18.17
2023-05-02T22:45:24.105Z,20.08
2023-05-02T22:47:53.851Z,14.15
2023-05-02T22:50:21.565Z,18.63
2023-05-02T22:52:51.693Z,26.10
2023-05-02T22:55:21.469Z,17.00
2023-05-02T22:57:51.296Z,21.00
2023-05-02T23:00:18.347Z,22.73
2023-05-02T23:02:45.779Z,20.20
2023-05-02T23:05:14.312Z,25.20
2023-05-02T23:07:41.495Z,22.13
2023-05-02T23:10:12.171Z,19.15
2023-05-02T23:12:39.490Z,19.20
2023-05-02T23:15:07.558Z,19.80
2023-05-02T23:17:38.320Z,19.90
2023-05-02T23:20:06.045Z,19.88
2023-05-02T23:22:36.066Z,20.50
2023-05-02T23:25:05.905Z,21.80
2023-05-02T23:27:33.152Z,21.48
2023-05-02T23:30:00.737Z,21.10
2023-05-02T23:32:30.371Z,17.77
2023-05-02T23:34:59.181Z,21.20
2023-05-02T23:37:28.806Z,14.60
2023-05-02T23:39:58.196Z,20.13
2023-05-02T23:42:25.473Z,27.75
2023-05-02T23:44:53.840Z,16.75
2023-05-02T23:47:25.823Z,22.73
2023-05-02T23:49:52.958Z,19.02
2023-05-02T23:52:20.355Z,18.92
2023-05-02T23:54:47.491Z,20.98
2023-05-02T23:57:14.804Z,19.05
2023-05-02T23:59:41.969Z,20.17
